sensor_id;sensor_type;location;lat;lon;timestamp;P1;durP1;ratioP1;P2;durP2;ratioP2
9819;SDS011;4949;48.482;9.206;2023-02-14T00:03:37;13.77;;;10.60;;
9819;SDS011;4949;48.482;9.206;2023-02-14T00:08:39;14.33;;;11.10;;
9819;SDS011;4949;48.482;9.206;2023-02-14T00:13:43;14.53;;;12.00;;
9819;SDS011;4949;48.482;9.206;2023-02-14T00:19:04;13.87;;;10.07;;
9819;SDS011;4949;48.482;9.206;2023-02-14T00:24:12;12.70;;;10.13;;
9819;SDS011;4949;48.482;9.206;2023-02-14T00:29:18;13.00;;;10.07;;
9819;SDS011;4949;48.482;9.206;2023-02-14T00:34:24;14.33;;;10.90;;
9819;SDS011;4949;48.482;9.206;2023-02-14T00:39:25;12.20;;;9.80;;
9819;SDS011;4949;48.482;9.206;2023-02-14T00:44:26;13.03;;;10.47;;
9819;SDS011;4949;48.482;9.206;2023-02-14T00:49:29;12.50;;;11.30;;
9819;SDS011;4949;48.482;9.206;2023-02-14T00:54:30;14.17;;;10.37;;
9819;SDS011;4949;48.482;9.206;2023-02-14T00:59:30;15.80;;;10.43;;
9819;SDS011;4949;48.482;9.206;2023-02-14T01:04:31;13.40;;;10.13;;
9819;SDS011;4949;48.482;9.206;2023-02-14T01:09:32;11.10;;;8.90;;
9819;SDS011;4949;48.482;9.206;2023-02-14T01:14:33;12.53;;;11.20;;
9819;SDS011;4949;48.482;9.206;2023-02-14T01:19:36;12.30;;;9.60;;
9819;SDS011;4949;48.482;9.206;2023-02-14T01:24:37;11.27;;;9.90;;
9819;SDS011;4949;48.482;9.206;2023-02-14T01:29:40;11.70;;;9.90;;
9819;SDS011;4949;48.482;9.206;2023-02-14T01:34:41;11.23;;;9.87;;
9819;SDS011;4949;48.482;9.206;2023-02-14T01:39:41;12.73;;;11.43;;
9819;SDS011;4949;48.482;9.206;2023-02-14T01:49:51;12.70;;;10.80;;
9819;SDS011;4949;48.482;9.206;2023-02-14T01:54:59;12.10;;;10.90;;
9819;SDS011;4949;48.482;9.206;2023-02-14T02:00:07;13.67;;;10.73;;
9819;SDS011;4949;48.482;9.206;2023-02-14T02:05:27;11.60;;;10.40;;
9819;SDS011;4949;48.482;9.206;2023-02-14T02:10:28;12.40;;;9.83;;
9819;SDS011;4949;48.482;9.206;2023-02-14T02:15:30;10.70;;;9.60;;
9819;SDS011;4949;48.482;9.206;2023-02-14T02:20:53;11.83;;;9.93;;
9819;SDS011;4949;48.482;9.206;2023-02-14T02:26:28;11.27;;;8.60;;
9819;SDS011;4949;48.482;9.206;2023-02-14T02:32:13;9.87;;;8.77;;
9819;SDS011;4949;48.482;9.206;2023-02-14T02:37:32;9.90;;;9.00;;
9819;SDS011;4949;48.482;9.206;2023-02-14T02:48:58;12.67;;;11.00;;
9819;SDS011;4949;48.482;9.206;2023-02-14T02:54:38;10.73;;;9.63;;
9819;SDS011;4949;48.482;9.206;2023-02-14T02:59:44;13.67;;;11.20;;
9819;SDS011;4949;48.482;9.206;2023-02-14T03:04:46;13.30;;;10.40;;
9819;SDS011;4949;48.482;9.206;2023-02-14T03:09:54;13.93;;;11.70;;
9819;SDS011;4949;48.482;9.206;2023-02-14T03:36:54;12.57;;;10.47;;
9819;SDS011;4949;48.482;9.206;2023-02-14T03:42:25;11.70;;;10.60;;
9819;SDS011;4949;48.482;9.206;2023-02-14T03:47:32;11.77;;;9.80;;
9819;SDS011;4949;48.482;9.206;2023-02-14T03:52:35;15.57;;;11.33;;
9819;SDS011;4949;48.482;9.206;2023-02-14T03:57:49;11.60;;;10.40;;
9819;SDS011;4949;48.482;9.206;2023-02-14T04:02:58;12.60;;;11.20;;
9819;SDS011;4949;48.482;9.206;2023-02-14T04:08:04;18.13;;;12.80;;
9819;SDS011;4949;48.482;9.206;2023-02-14T04:13:04;13.50;;;10.73;;
9819;SDS011;4949;48.482;9.206;2023-02-14T04:18:05;14.70;;;11.60;;
9819;SDS011;4949;48.482;9.206;2023-02-14T04:23:24;14.17;;;12.33;;
9819;SDS011;4949;48.482;9.206;2023-02-14T04:28:25;15.00;;;11.10;;
9819;SDS011;4949;48.482;9.206;2023-02-14T04:33:28;14.57;;;10.97;;
9819;SDS011;4949;48.482;9.206;2023-02-14T04:38:30;16.13;;;11.87;;
9819;SDS011;4949;48.482;9.206;2023-02-14T04:43:31;13.40;;;11.47;;
9819;SDS011;4949;48.482;9.206;2023-02-14T04:48:35;16.03;;;11.73;;
9819;SDS011;4949;48.482;9.206;2023-02-14T04:53:35;15.37;;;12.83;;
9819;SDS011;4949;48.482;9.206;2023-02-14T04:58:42;18.40;;;12.87;;
9819;SDS011;4949;48.482;9.206;2023-02-14T05:03:42;14.93;;;12.23;;
9819;SDS011;4949;48.482;9.206;2023-02-14T05:08:45;16.10;;;11.53;;
9819;SDS011;4949;48.482;9.206;2023-02-14T05:13:48;15.17;;;11.17;;
9819;SDS011;4949;48.482;9.206;2023-02-14T05:18:50;15.63;;;13.10;;
9819;SDS011;4949;48.482;9.206;2023-02-14T05:23:50;14.30;;;11.40;;
9819;SDS011;4949;48.482;9.206;2023-02-14T05:28:56;15.70;;;11.20;;
9819;SDS011;4949;48.482;9.206;2023-02-14T05:33:57;15.90;;;11.83;;
9819;SDS011;4949;48.482;9.206;2023-02-14T05:38:57;19.87;;;12.93;;
9819;SDS011;4949;48.482;9.206;2023-02-14T05:43:58;16.57;;;12.20;;
9819;SDS011;4949;48.482;9.206;2023-02-14T05:48:59;12.70;;;11.00;;
9819;SDS011;4949;48.482;9.206;2023-02-14T05:54:04;16.60;;;11.80;;
9819;SDS011;4949;48.482;9.206;2023-02-14T05:59:08;12.83;;;11.13;;
9819;SDS011;4949;48.482;9.206;2023-02-14T06:04:11;14.13;;;12.03;;
9819;SDS011;4949;48.482;9.206;2023-02-14T06:09:11;14.47;;;11.57;;
9819;SDS011;4949;48.482;9.206;2023-02-14T06:14:15;15.10;;;11.90;;
9819;SDS011;4949;48.482;9.206;2023-02-14T06:19:15;15.17;;;12.33;;
9819;SDS011;4949;48.482;9.206;2023-02-14T06:24:18;16.73;;;12.60;;
9819;SDS011;4949;48.482;9.206;2023-02-14T06:29:19;17.43;;;12.03;;
9819;SDS011;4949;48.482;9.206;2023-02-14T06:34:20;16.20;;;12.80;;
9819;SDS011;4949;48.482;9.206;2023-02-14T06:39:23;15.30;;;11.60;;
9819;SDS011;4949;48.482;9.206;2023-02-14T06:44:24;14.30;;;11.53;;
9819;SDS011;4949;48.482;9.206;2023-02-14T06:49:24;17.23;;;11.87;;
9819;SDS011;4949;48.482;9.206;2023-02-14T06:54:25;18.13;;;12.23;;
9819;SDS011;4949;48.482;9.206;2023-02-14T06:59:26;16.47;;;11.57;;
9819;SDS011;4949;48.482;9.206;2023-02-14T07:04:27;13.83;;;11.87;;
9819;SDS011;4949;48.482;9.206;2023-02-14T07:09:30;15.00;;;11.40;;
9819;SDS011;4949;48.482;9.206;2023-02-14T07:14:31;15.93;;;12.60;;
9819;SDS011;4949;48.482;9.206;2023-02-14T07:19:31;21.57;;;14.80;;
9819;SDS011;4949;48.482;9.206;2023-02-14T07:24:35;15.37;;;11.93;;
9819;SDS011;4949;48.482;9.206;2023-02-14T07:29:35;17.77;;;12.90;;
9819;SDS011;4949;48.482;9.206;2023-02-14T07:34:38;15.57;;;12.30;;
9819;SDS011;4949;48.482;9.206;2023-02-14T07:39:42;15.50;;;12.70;;
9819;SDS011;4949;48.482;9.206;2023-02-14T07:44:46;16.20;;;13.60;;
9819;SDS011;4949;48.482;9.206;2023-02-14T07:49:49;16.27;;;13.33;;
9819;SDS011;4949;48.482;9.206;2023-02-14T07:54:50;15.50;;;13.03;;
9819;SDS011;4949;48.482;9.206;2023-02-14T07:59:51;16.70;;;12.73;;
9819;SDS011;4949;48.482;9.206;2023-02-14T08:04:51;15.13;;;13.53;;
9819;SDS011;4949;48.482;9.206;2023-02-14T08:09:52;15.60;;;12.77;;
9819;SDS011;4949;48.482;9.206;2023-02-14T08:14:55;19.90;;;13.87;;
9819;SDS011;4949;48.482;9.206;2023-02-14T08:20:16;13.27;;;11.57;;
9819;SDS011;4949;48.482;9.206;2023-02-14T08:25:17;13.97;;;12.50;;
9819;SDS011;4949;48.482;9.206;2023-02-14T08:30:18;17.40;;;13.23;;
9819;SDS011;4949;48.482;9.206;2023-02-14T08:35:18;15.53;;;13.00;;
9819;SDS011;4949;48.482;9.206;2023-02-14T08:40:21;16.53;;;14.47;;
9819;SDS011;4949;48.482;9.206;2023-02-14T08:45:25;15.33;;;13.20;;
9819;SDS011;4949;48.482;9.206;2023-02-14T08:50:26;15.40;;;12.60;;
9819;SDS011;4949;48.482;9.206;2023-02-14T08:55:29;17.33;;;15.37;;
9819;SDS011;4949;48.482;9.206;2023-02-14T09:00:30;19.10;;;16.23;;
9819;SDS011;4949;48.482;9.206;2023-02-14T09:05:32;19.80;;;17.83;;
9819;SDS011;4949;48.482;9.206;2023-02-14T09:10:35;20.00;;;18.00;;
9819;SDS011;4949;48.482;9.206;2023-02-14T09:15:36;19.27;;;15.47;;
9819;SDS011;4949;48.482;9.206;2023-02-14T09:20:37;16.97;;;15.17;;
9819;SDS011;4949;48.482;9.206;2023-02-14T09:25:38;20.57;;;17.20;;
9819;SDS011;4949;48.482;9.206;2023-02-14T09:30:38;23.47;;;17.97;;
9819;SDS011;4949;48.482;9.206;2023-02-14T09:35:39;18.43;;;16.43;;
9819;SDS011;4949;48.482;9.206;2023-02-14T09:40:40;22.80;;;16.37;;
9819;SDS011;4949;48.482;9.206;2023-02-14T09:45:41;20.97;;;16.00;;
9819;SDS011;4949;48.482;9.206;2023-02-14T09:50:58;17.10;;;14.33;;
9819;SDS011;4949;48.482;9.206;2023-02-14T10:01:17;17.23;;;14.13;;
9819;SDS011;4949;48.482;9.206;2023-02-14T10:07:29;18.33;;;13.60;;
9819;SDS011;4949;48.482;9.206;2023-02-14T10:22:56;16.40;;;13.33;;
9819;SDS011;4949;48.482;9.206;2023-02-14T10:28:04;14.80;;;11.93;;
9819;SDS011;4949;48.482;9.206;2023-02-14T10:49:57;16.60;;;13.50;;
9819;SDS011;4949;48.482;9.206;2023-02-14T11:00:29;13.67;;;12.13;;
9819;SDS011;4949;48.482;9.206;2023-02-14T11:05:40;14.73;;;11.50;;
9819;SDS011;4949;48.482;9.206;2023-02-14T11:10:44;14.17;;;11.47;;
9819;SDS011;4949;48.482;9.206;2023-02-14T11:15:45;15.53;;;12.17;;
9819;SDS011;4949;48.482;9.206;2023-02-14T11:20:58;16.20;;;12.40;;
9819;SDS011;4949;48.482;9.206;2023-02-14T11:26:13;14.70;;;11.90;;
9819;SDS011;4949;48.482;9.206;2023-02-14T11:31:25;16.70;;;12.63;;
9819;SDS011;4949;48.482;9.206;2023-02-14T11:36:31;14.30;;;11.60;;
9819;SDS011;4949;48.482;9.206;2023-02-14T11:41:47;20.30;;;12.83;;
9819;SDS011;4949;48.482;9.206;2023-02-14T11:46:53;16.27;;;12.70;;
9819;SDS011;4949;48.482;9.206;2023-02-14T11:51:59;17.40;;;15.60;;
9819;SDS011;4949;48.482;9.206;2023-02-14T11:57:16;15.80;;;12.90;;
9819;SDS011;4949;48.482;9.206;2023-02-14T12:02:39;17.73;;;14.10;;
9819;SDS011;4949;48.482;9.206;2023-02-14T12:07:49;18.63;;;15.57;;
9819;SDS011;4949;48.482;9.206;2023-02-14T12:18:36;16.07;;;12.67;;
9819;SDS011;4949;48.482;9.206;2023-02-14T12:36:01;15.00;;;10.50;;
9819;SDS011;4949;48.482;9.206;2023-02-14T12:41:04;11.07;;;9.97;;
9819;SDS011;4949;48.482;9.206;2023-02-14T13:08:06;13.37;;;12.00;;
9819;SDS011;4949;48.482;9.206;2023-02-14T13:25:45;15.37;;;13.87;;
9819;SDS011;4949;48.482;9.206;2023-02-14T13:30:33;16.27;;;14.23;;
9819;SDS011;4949;48.482;9.206;2023-02-14T13:35:40;16.57;;;14.97;;
9819;SDS011;4949;48.482;9.206;2023-02-14T13:40:44;17.40;;;13.57;;
9819;SDS011;4949;48.482;9.206;2023-02-14T13:45:52;15.77;;;13.80;;
9819;SDS011;4949;48.482;9.206;2023-02-14T13:50:59;16.80;;;15.00;;
9819;SDS011;4949;48.482;9.206;2023-02-14T14:01:27;14.17;;;12.73;;
9819;SDS011;4949;48.482;9.206;2023-02-14T14:07:14;16.00;;;11.67;;
9819;SDS011;4949;48.482;9.206;2023-02-14T14:17:27;13.27;;;12.17;;
9819;SDS011;4949;48.482;9.206;2023-02-14T14:22:30;13.33;;;11.97;;
9819;SDS011;4949;48.482;9.206;2023-02-14T14:27:45;15.63;;;13.17;;
9819;SDS011;4949;48.482;9.206;2023-02-14T14:32:46;14.00;;;12.67;;
9819;SDS011;4949;48.482;9.206;2023-02-14T14:37:56;15.47;;;13.80;;
9819;SDS011;4949;48.482;9.206;2023-02-14T14:43:13;14.50;;;13.10;;
9819;SDS011;4949;48.482;9.206;2023-02-14T14:48:31;15.00;;;12.40;;
9819;SDS011;4949;48.482;9.206;2023-02-14T14:53:47;13.80;;;12.40;;
9819;SDS011;4949;48.482;9.206;2023-02-14T15:04:31;14.67;;;13.07;;
9819;SDS011;4949;48.482;9.206;2023-02-14T15:09:34;14.30;;;12.87;;
9819;SDS011;4949;48.482;9.206;2023-02-14T15:14:36;16.03;;;14.47;;
9819;SDS011;4949;48.482;9.206;2023-02-14T15:19:43;15.13;;;13.17;;
9819;SDS011;4949;48.482;9.206;2023-02-14T15:24:53;15.57;;;14.07;;
9819;SDS011;4949;48.482;9.206;2023-02-14T15:30:00;15.87;;;14.17;;
9819;SDS011;4949;48.482;9.206;2023-02-14T15:35:05;13.67;;;12.37;;
9819;SDS011;4949;48.482;9.206;2023-02-14T15:40:15;15.47;;;13.90;;
9819;SDS011;4949;48.482;9.206;2023-02-14T15:50:34;14.97;;;13.40;;
9819;SDS011;4949;48.482;9.206;2023-02-14T15:55:49;15.13;;;13.20;;
9819;SDS011;4949;48.482;9.206;2023-02-14T16:00:50;16.43;;;13.03;;
9819;SDS011;4949;48.482;9.206;2023-02-14T16:05:52;14.33;;;12.67;;
9819;SDS011;4949;48.482;9.206;2023-02-14T16:11:12;16.73;;;13.90;;
9819;SDS011;4949;48.482;9.206;2023-02-14T16:16:32;18.67;;;14.67;;
9819;SDS011;4949;48.482;9.206;2023-02-14T16:22:04;18.00;;;13.93;;
9819;SDS011;4949;48.482;9.206;2023-02-14T16:27:07;17.30;;;13.03;;
9819;SDS011;4949;48.482;9.206;2023-02-14T16:32:15;20.80;;;14.47;;
9819;SDS011;4949;48.482;9.206;2023-02-14T16:37:21;19.40;;;15.37;;
9819;SDS011;4949;48.482;9.206;2023-02-14T16:42:30;20.97;;;14.87;;
9819;SDS011;4949;48.482;9.206;2023-02-14T16:47:31;22.50;;;15.60;;
9819;SDS011;4949;48.482;9.206;2023-02-14T16:52:32;17.93;;;15.10;;
9819;SDS011;4949;48.482;9.206;2023-02-14T16:57:34;18.40;;;13.70;;
9819;SDS011;4949;48.482;9.206;2023-02-14T17:02:39;14.53;;;12.60;;
9819;SDS011;4949;48.482;9.206;2023-02-14T17:07:41;15.30;;;13.53;;
9819;SDS011;4949;48.482;9.206;2023-02-14T17:12:43;15.60;;;13.93;;
9819;SDS011;4949;48.482;9.206;2023-02-14T17:17:46;15.17;;;12.60;;
9819;SDS011;4949;48.482;9.206;2023-02-14T17:22:49;20.57;;;14.70;;
9819;SDS011;4949;48.482;9.206;2023-02-14T17:27:50;18.40;;;13.93;;
9819;SDS011;4949;48.482;9.206;2023-02-14T17:32:50;21.10;;;15.17;;
9819;SDS011;4949;48.482;9.206;2023-02-14T17:37:53;20.07;;;15.33;;
9819;SDS011;4949;48.482;9.206;2023-02-14T17:42:54;21.50;;;14.40;;
9819;SDS011;4949;48.482;9.206;2023-02-14T17:48:00;20.20;;;14.53;;
9819;SDS011;4949;48.482;9.206;2023-02-14T17:53:01;16.87;;;14.90;;
9819;SDS011;4949;48.482;9.206;2023-02-14T17:58:04;16.13;;;13.60;;
9819;SDS011;4949;48.482;9.206;2023-02-14T18:03:05;20.00;;;15.90;;
9819;SDS011;4949;48.482;9.206;2023-02-14T18:08:06;17.87;;;15.43;;
9819;SDS011;4949;48.482;9.206;2023-02-14T18:13:06;18.47;;;14.47;;
9819;SDS011;4949;48.482;9.206;2023-02-14T18:18:07;19.97;;;15.67;;
9819;SDS011;4949;48.482;9.206;2023-02-14T18:23:08;19.77;;;14.70;;
9819;SDS011;4949;48.482;9.206;2023-02-14T18:28:11;16.10;;;14.27;;
9819;SDS011;4949;48.482;9.206;2023-02-14T18:33:15;17.90;;;14.10;;
9819;SDS011;4949;48.482;9.206;2023-02-14T18:38:17;17.17;;;15.40;;
9819;SDS011;4949;48.482;9.206;2023-02-14T18:43:18;17.90;;;14.30;;
9819;SDS011;4949;48.482;9.206;2023-02-14T18:48:19;18.83;;;14.20;;
9819;SDS011;4949;48.482;9.206;2023-02-14T18:53:21;18.93;;;16.23;;
9819;SDS011;4949;48.482;9.206;2023-02-14T18:58:21;20.47;;;18.30;;
9819;SDS011;4949;48.482;9.206;2023-02-14T19:03:25;19.40;;;16.40;;
9819;SDS011;4949;48.482;9.206;2023-02-14T19:08:31;22.97;;;16.83;;
9819;SDS011;4949;48.482;9.206;2023-02-14T19:13:36;19.90;;;17.80;;
9819;SDS011;4949;48.482;9.206;2023-02-14T19:18:37;20.10;;;17.80;;
9819;SDS011;4949;48.482;9.206;2023-02-14T19:23:38;23.73;;;19.23;;
9819;SDS011;4949;48.482;9.206;2023-02-14T19:28:40;22.27;;;19.70;;
9819;SDS011;4949;48.482;9.206;2023-02-14T19:33:44;23.27;;;20.50;;
9819;SDS011;4949;48.482;9.206;2023-02-14T19:38:48;21.77;;;18.47;;
9819;SDS011;4949;48.482;9.206;2023-02-14T19:43:54;21.93;;;18.03;;
9819;SDS011;4949;48.482;9.206;2023-02-14T19:48:57;20.73;;;18.70;;
9819;SDS011;4949;48.482;9.206;2023-02-14T19:53:58;24.70;;;19.33;;
9819;SDS011;4949;48.482;9.206;2023-02-14T19:59:02;20.70;;;18.30;;
9819;SDS011;4949;48.482;9.206;2023-02-14T20:04:09;20.87;;;18.00;;
9819;SDS011;4949;48.482;9.206;2023-02-14T20:09:13;28.83;;;21.00;;
9819;SDS011;4949;48.482;9.206;2023-02-14T20:14:19;27.73;;;20.97;;
9819;SDS011;4949;48.482;9.206;2023-02-14T20:19:24;20.60;;;18.33;;
9819;SDS011;4949;48.482;9.206;2023-02-14T20:24:31;24.40;;;20.40;;
9819;SDS011;4949;48.482;9.206;2023-02-14T20:29:31;23.63;;;19.67;;
9819;SDS011;4949;48.482;9.206;2023-02-14T20:34:32;23.10;;;18.97;;
9819;SDS011;4949;48.482;9.206;2023-02-14T20:39:33;24.13;;;19.87;;
9819;SDS011;4949;48.482;9.206;2023-02-14T20:44:34;25.43;;;20.90;;
9819;SDS011;4949;48.482;9.206;2023-02-14T20:49:35;25.17;;;20.00;;
9819;SDS011;4949;48.482;9.206;2023-02-14T20:54:36;23.30;;;19.37;;
9819;SDS011;4949;48.482;9.206;2023-02-14T20:59:37;23.37;;;19.33;;
9819;SDS011;4949;48.482;9.206;2023-02-14T21:04:46;23.13;;;19.97;;
9819;SDS011;4949;48.482;9.206;2023-02-14T21:09:49;20.30;;;17.67;;
9819;SDS011;4949;48.482;9.206;2023-02-14T21:14:49;20.23;;;18.03;;
9819;SDS011;4949;48.482;9.206;2023-02-14T21:19:51;22.90;;;17.20;;
9819;SDS011;4949;48.482;9.206;2023-02-14T21:24:54;15.90;;;13.90;;
9819;SDS011;4949;48.482;9.206;2023-02-14T21:29:59;18.00;;;15.80;;
9819;SDS011;4949;48.482;9.206;2023-02-14T21:35:02;17.87;;;15.43;;
9819;SDS011;4949;48.482;9.206;2023-02-14T21:40:04;17.73;;;15.83;;
9819;SDS011;4949;48.482;9.206;2023-02-14T21:45:06;17.10;;;14.97;;
9819;SDS011;4949;48.482;9.206;2023-02-14T21:50:30;18.50;;;15.43;;
9819;SDS011;4949;48.482;9.206;2023-02-14T21:55:30;19.80;;;14.60;;
9819;SDS011;4949;48.482;9.206;2023-02-14T22:00:31;19.07;;;16.47;;
9819;SDS011;4949;48.482;9.206;2023-02-14T22:05:32;22.73;;;17.90;;
9819;SDS011;4949;48.482;9.206;2023-02-14T22:10:33;21.87;;;16.60;;
9819;SDS011;4949;48.482;9.206;2023-02-14T22:15:33;19.87;;;17.40;;
9819;SDS011;4949;48.482;9.206;2023-02-14T22:20:36;19.10;;;16.00;;
9819;SDS011;4949;48.482;9.206;2023-02-14T22:25:37;18.70;;;16.37;;
9819;SDS011;4949;48.482;9.206;2023-02-14T22:30:37;21.57;;;16.50;;
9819;SDS011;4949;48.482;9.206;2023-02-14T22:35:38;18.70;;;15.03;;
9819;SDS011;4949;48.482;9.206;2023-02-14T22:40:41;20.10;;;16.67;;
9819;SDS011;4949;48.482;9.206;2023-02-14T22:45:42;18.87;;;15.70;;
9819;SDS011;4949;48.482;9.206;2023-02-14T22:50:43;19.50;;;15.93;;
9819;SDS011;4949;48.482;9.206;2023-02-14T22:55:43;18.27;;;16.33;;
9819;SDS011;4949;48.482;9.206;2023-02-14T23:00:44;18.83;;;16.83;;
9819;SDS011;4949;48.482;9.206;2023-02-14T23:05:45;21.03;;;16.63;;
9819;SDS011;4949;48.482;9.206;2023-02-14T23:10:46;23.20;;;19.27;;
9819;SDS011;4949;48.482;9.206;2023-02-14T23:15:51;21.87;;;17.13;;
9819;SDS011;4949;48.482;9.206;2023-02-14T23:21:11;20.10;;;16.53;;
9819;SDS011;4949;48.482;9.206;2023-02-14T23:26:31;19.30;;;16.80;;
9819;SDS011;4949;48.482;9.206;2023-02-14T23:31:32;17.50;;;14.90;;
9819;SDS011;4949;48.482;9.206;2023-02-14T23:36:32;21.90;;;17.70;;
9819;SDS011;4949;48.482;9.206;2023-02-14T23:41:36;21.23;;;17.63;;
9819;SDS011;4949;48.482;9.206;2023-02-14T23:46:49;22.70;;;18.10;;
9819;SDS011;4949;48.482;9.206;2023-02-14T23:51:55;21.23;;;17.70;;
9819;SDS011;4949;48.482;9.206;2023-02-14T23:56:56;21.27;;;17.50;;
